createdAt,value
2023-04-18T00:02:04.622Z,8.79
2023-04-18T00:07:13.601Z,8.70
2023-04-18T00:12:21.324Z,8.61
2023-04-18T00:17:28.825Z,8.54
2023-04-18T00:22:36.807Z,8.45
2023-04-18T00:27:45.222Z,8.42
2023-04-18T00:32:52.867Z,8.38
2023-04-18T00:38:00.307Z,8.36
2023-04-18T00:43:08.829Z,8.36
2023-04-18T00:48:16.383Z,8.36
2023-04-18T00:53:23.856Z,8.37
2023-04-18T00:58:31.705Z,8.38
2023-04-18T01:03:40.020Z,8.39
2023-04-18T01:08:48.265Z,8.41
2023-04-18T01:14:06.815Z,8.43
2023-04-18T01:19:17.461Z,8.44
2023-04-18T01:24:27.332Z,8.46
2023-04-18T01:29:36.261Z,8.47
2023-04-18T01:34:45.505Z,8.47
2023-04-18T01:39:54.293Z,8.48
2023-04-18T01:45:01.543Z,8.48
2023-04-18T01:50:10.763Z,8.46
2023-04-18T01:55:18.611Z,8.46
2023-04-18T02:00:27.300Z,8.45
2023-04-18T02:05:34.926Z,8.44
2023-04-18T02:10:42.993Z,8.43
2023-04-18T02:15:51.306Z,8.42
2023-04-18T02:20:58.859Z,8.40
2023-04-18T02:26:06.372Z,8.39
2023-04-18T02:31:15.303Z,8.37
2023-04-18T02:36:22.958Z,8.36
2023-04-18T02:41:30.564Z,8.33
2023-04-18T02:46:38.348Z,8.32
2023-04-18T02:51:48.312Z,8.31
2023-04-18T02:56:57.476Z,8.31
2023-04-18T03:02:35.197Z,8.28
2023-04-18T03:07:51.326Z,8.28
2023-04-18T03:12:59.894Z,8.26
2023-04-18T03:18:09.170Z,8.23
2023-04-18T03:23:17.533Z,8.22
2023-04-18T03:28:26.163Z,8.21
2023-04-18T03:33:34.261Z,8.20
2023-04-18T03:38:47.941Z,8.18
2023-04-18T03:43:55.603Z,8.16
2023-04-18T03:49:03.175Z,8.14
2023-04-18T03:54:11.164Z,8.11
2023-04-18T03:59:18.924Z,8.08
2023-04-18T04:04:28.090Z,8.06
2023-04-18T04:09:36.964Z,8.04
2023-04-18T04:14:44.301Z,7.99
2023-04-18T04:19:52.883Z,7.98
2023-04-18T04:25:01.288Z,7.98
2023-04-18T04:30:14.539Z,8.01
2023-04-18T04:35:21.966Z,8.05
2023-04-18T04:40:29.869Z,8.13
2023-04-18T04:45:45.931Z,8.24
2023-04-18T04:50:57.857Z,8.37
2023-04-18T04:56:05.246Z,8.51
2023-04-18T05:01:13.774Z,8.66
2023-04-18T05:06:23.099Z,8.80
2023-04-18T05:11:31.222Z,8.95
2023-04-18T05:16:39.109Z,9.16
2023-04-18T05:21:47.089Z,9.39
2023-04-18T05:26:54.790Z,9.65
2023-04-18T05:32:03.921Z,9.92
2023-04-18T05:37:12.011Z,10.24
2023-04-18T05:42:19.448Z,10.57
2023-04-18T05:47:28.869Z,10.89
2023-04-18T05:52:36.410Z,11.21
2023-04-18T05:57:43.821Z,11.52
2023-04-18T06:02:51.543Z,11.79
2023-04-18T06:07:59.548Z,12.08
2023-04-18T06:13:07.607Z,12.36
2023-04-18T06:18:15.688Z,12.66
2023-04-18T06:23:24.081Z,12.92
2023-04-18T06:28:31.648Z,13.09
2023-04-18T06:33:40.201Z,13.28
2023-04-18T06:38:47.705Z,13.56
2023-04-18T06:44:03.421Z,13.91
2023-04-18T06:49:11.656Z,14.25
2023-04-18T06:54:20.160Z,14.54
2023-04-18T06:59:27.571Z,14.83
2023-04-18T07:04:35.566Z,15.15
2023-04-18T07:09:43.939Z,15.44
2023-04-18T07:14:51.938Z,15.74
2023-04-18T07:19:59.879Z,16.06
2023-04-18T07:25:08.683Z,16.33
2023-04-18T07:30:18.245Z,16.58
2023-04-18T07:35:25.969Z,16.83
2023-04-18T07:40:33.554Z,16.99
2023-04-18T07:45:43.856Z,16.99
2023-04-18T07:50:52.456Z,16.98
2023-04-18T07:55:59.835Z,17.04
2023-04-18T08:01:08.156Z,17.08
2023-04-18T08:06:15.830Z,17.11
2023-04-18T08:11:23.719Z,17.13
2023-04-18T08:16:31.215Z,17.22
2023-04-18T08:21:39.952Z,17.30
2023-04-18T08:26:47.948Z,17.30
2023-04-18T08:31:55.320Z,17.29
2023-04-18T08:37:02.746Z,17.27
2023-04-18T08:42:12.277Z,17.19
2023-04-18T08:47:19.855Z,17.03
2023-04-18T08:52:28.754Z,16.82
2023-04-18T08:57:37.372Z,16.59
2023-04-18T09:02:47.450Z,16.39
2023-04-18T09:07:56.543Z,16.20
2023-04-18T09:13:05.585Z,16.07
2023-04-18T09:18:13.671Z,15.92
2023-04-18T09:23:27.277Z,15.82
2023-04-18T09:28:37.889Z,15.77
2023-04-18T09:33:57.173Z,15.75
2023-04-18T09:39:05.727Z,15.74
2023-04-18T09:44:15.896Z,15.71
2023-04-18T09:49:24.147Z,15.67
2023-04-18T09:54:35.408Z,15.66
2023-04-18T09:59:48.495Z,15.64
2023-04-18T10:04:57.767Z,15.60
2023-04-18T10:10:05.418Z,15.58
2023-04-18T10:15:16.182Z,15.58
2023-04-18T10:20:25.546Z,15.59
2023-04-18T10:25:55.425Z,15.59
2023-04-18T10:31:08.310Z,15.62
2023-04-18T10:36:20.935Z,15.67
2023-04-18T10:41:30.885Z,15.72
2023-04-18T10:46:38.503Z,15.76
2023-04-18T10:51:46.732Z,15.77
2023-04-18T10:56:58.321Z,15.80
2023-04-18T11:02:25.330Z,15.87
2023-04-18T11:07:40.541Z,15.90
2023-04-18T11:12:48.524Z,15.97
2023-04-18T11:18:04.274Z,15.98
2023-04-18T11:23:21.426Z,15.97
2023-04-18T11:28:31.422Z,16.03
2023-04-18T11:33:39.860Z,16.09
2023-04-18T11:38:47.385Z,16.17
2023-04-18T11:43:54.700Z,16.22
2023-04-18T11:49:02.259Z,16.24
2023-04-18T11:54:30.168Z,16.29
2023-04-18T11:59:37.747Z,16.35
2023-04-18T12:04:59.731Z,16.39
2023-04-18T12:10:09.568Z,16.39
2023-04-18T12:15:20.043Z,16.36
2023-04-18T12:20:35.302Z,16.31
2023-04-18T12:25:43.125Z,16.28
2023-04-18T12:30:50.799Z,16.30
2023-04-18T12:35:58.650Z,16.33
2023-04-18T12:41:06.346Z,16.37
2023-04-18T12:46:14.982Z,16.39
2023-04-18T12:51:23.265Z,16.39
2023-04-18T12:56:30.930Z,16.43
2023-04-18T13:01:38.396Z,16.47
2023-04-18T13:06:46.139Z,16.51
2023-04-18T13:11:54.135Z,16.54
2023-04-18T13:17:01.676Z,16.54
2023-04-18T13:22:09.615Z,16.52
2023-04-18T13:27:51.356Z,16.51
2023-04-18T13:33:24.050Z,16.48
2023-04-18T13:38:32.038Z,16.46
2023-04-18T13:43:39.473Z,16.42
2023-04-18T13:48:47.312Z,16.38
2023-04-18T13:53:54.847Z,16.32
2023-04-18T13:59:02.432Z,16.27
2023-04-18T14:04:10.051Z,16.22
2023-04-18T14:09:18.607Z,16.17
2023-04-18T14:14:26.246Z,16.13
2023-04-18T14:19:35.219Z,16.09
2023-04-18T14:24:42.754Z,16.07
2023-04-18T14:29:50.111Z,16.04
2023-04-18T14:34:59.223Z,15.98
2023-04-18T14:40:08.715Z,15.89
2023-04-18T14:45:17.341Z,15.80
2023-04-18T14:50:25.078Z,15.71
2023-04-18T14:55:32.771Z,15.61
2023-04-18T15:00:40.331Z,15.51
2023-04-18T15:05:49.369Z,15.42
2023-04-18T15:10:56.936Z,15.34
2023-04-18T15:16:04.462Z,15.24
2023-04-18T15:21:11.951Z,15.16
2023-04-18T15:26:19.352Z,15.06
2023-04-18T15:31:27.997Z,14.97
2023-04-18T15:36:36.369Z,14.70
2023-04-18T15:41:43.891Z,14.76
2023-04-18T15:46:51.675Z,14.66
2023-04-18T15:51:59.425Z,14.56
2023-04-18T15:57:06.829Z,14.47
2023-04-18T16:02:14.726Z,14.39
2023-04-18T16:07:22.196Z,14.31
2023-04-18T16:12:29.397Z,14.22
2023-04-18T16:17:37.255Z,14.13
2023-04-18T16:22:44.647Z,14.03
2023-04-18T16:27:52.113Z,13.94
2023-04-18T16:32:59.543Z,13.86
2023-04-18T16:38:07.459Z,13.77
2023-04-18T16:43:15.070Z,13.69
2023-04-18T16:48:22.792Z,13.62
2023-04-18T16:53:30.368Z,13.54
2023-04-18T16:58:37.866Z,13.45
2023-04-18T17:03:45.348Z,13.38
2023-04-18T17:08:54.009Z,13.29
2023-04-18T17:14:02.016Z,13.20
2023-04-18T17:19:09.791Z,13.07
2023-04-18T17:24:19.289Z,13.04
2023-04-18T17:29:26.693Z,12.96
2023-04-18T17:34:34.383Z,12.88
2023-04-18T17:39:41.801Z,12.81
2023-04-18T17:44:49.511Z,12.71
2023-04-18T17:49:56.993Z,12.64
2023-04-18T17:55:04.488Z,12.54
2023-04-18T18:00:15.042Z,12.42
2023-04-18T18:05:23.742Z,12.26
2023-04-18T18:10:31.566Z,12.08
2023-04-18T18:15:38.920Z,11.88
2023-04-18T18:20:47.087Z,11.69
2023-04-18T18:25:54.706Z,11.53
2023-04-18T18:31:02.273Z,11.38
2023-04-18T18:36:10.070Z,11.25
2023-04-18T18:41:17.606Z,11.12
2023-04-18T18:46:25.469Z,11.01
2023-04-18T18:51:33.115Z,10.91
2023-04-18T18:56:42.637Z,10.81
2023-04-18T19:01:50.018Z,10.74
2023-04-18T19:06:57.791Z,10.65
2023-04-18T19:12:05.406Z,10.59
2023-04-18T19:17:12.821Z,10.52
2023-04-18T19:22:20.261Z,10.45
2023-04-18T19:27:27.629Z,10.38
2023-04-18T19:32:35.298Z,10.30
2023-04-18T19:37:43.574Z,10.24
2023-04-18T19:42:50.977Z,10.16
2023-04-18T19:47:58.775Z,10.10
2023-04-18T19:53:06.310Z,10.03
2023-04-18T19:58:13.627Z,9.95
2023-04-18T20:03:21.342Z,9.90
2023-04-18T20:08:29.951Z,9.84
2023-04-18T20:13:37.892Z,9.79
2023-04-18T20:18:47.690Z,9.76
2023-04-18T20:23:56.963Z,9.72
2023-04-18T20:29:04.437Z,9.71
2023-04-18T20:34:11.910Z,9.68
2023-04-18T20:39:19.362Z,9.66
2023-04-18T20:44:26.776Z,9.65
2023-04-18T20:49:34.543Z,9.62
2023-04-18T20:54:42.424Z,9.61
2023-04-18T20:59:49.848Z,9.58
2023-04-18T21:04:57.256Z,9.53
2023-04-18T21:10:04.962Z,9.49
2023-04-18T21:15:14.040Z,9.42
2023-04-18T21:20:21.950Z,9.35
2023-04-18T21:25:29.458Z,9.29
2023-04-18T21:30:37.082Z,9.20
2023-04-18T21:35:44.462Z,9.15
2023-04-18T21:40:51.929Z,9.09
2023-04-18T21:45:59.582Z,9.02
2023-04-18T21:51:07.713Z,8.96
2023-04-18T21:56:15.624Z,8.90
2023-04-18T22:01:23.081Z,8.84
2023-04-18T22:06:31.247Z,8.78
2023-04-18T22:11:38.720Z,8.71
2023-04-18T22:16:46.334Z,8.62
2023-04-18T22:21:53.724Z,8.55
2023-04-18T22:27:01.334Z,8.48
2023-04-18T22:32:09.199Z,8.41
2023-04-18T22:37:16.619Z,8.36
2023-04-18T22:42:24.085Z,8.31
2023-04-18T22:47:31.572Z,8.27
2023-04-18T22:52:39.772Z,8.23
2023-04-18T22:57:47.701Z,8.21
2023-04-18T23:02:55.533Z,8.18
2023-04-18T23:08:03.064Z,8.15
2023-04-18T23:13:10.607Z,8.13
2023-04-18T23:18:18.655Z,8.11
2023-04-18T23:23:26.263Z,8.09
2023-04-18T23:28:34.643Z,8.07
2023-04-18T23:33:42.209Z,8.05
2023-04-18T23:38:49.644Z,8.02
2023-04-18T23:43:57.165Z,7.98
2023-04-18T23:49:04.543Z,7.95
2023-04-18T23:54:12.370Z,7.92
2023-04-18T23:59:20.020Z,7.90
